createdAt,value
2022-10-22T00:00:09.428Z,99.993896
2022-10-22T00:01:18.088Z,99.993896
2022-10-22T00:02:26.790Z,99.993896
2022-10-22T00:03:34.462Z,99.993896
2022-10-22T00:05:53.816Z,99.993896
2022-10-22T00:07:02.463Z,99.993896
2022-10-22T00:08:10.509Z,99.993896
2022-10-22T00:09:20.214Z,99.993896
2022-10-22T00:10:29.876Z,99.993896
2022-10-22T00:11:38.549Z,99.993896
2022-10-22T00:12:47.230Z,99.993896
2022-10-22T00:13:56.037Z,99.993896
2022-10-22T00:15:05.721Z,99.993896
2022-10-22T00:16:13.372Z,99.993896
2022-10-22T00:17:23.036Z,99.993896
2022-10-22T00:18:32.711Z,99.993896
2022-10-22T00:19:42.405Z,99.993896
2022-10-22T00:20:51.074Z,99.993896
2022-10-22T00:21:59.771Z,99.993896
2022-10-22T00:23:09.435Z,99.993896
2022-10-22T00:24:19.118Z,99.993896
2022-10-22T00:25:27.935Z,99.993896
2022-10-22T00:26:36.703Z,99.993896
2022-10-22T00:27:46.367Z,99.993896
2022-10-22T00:28:56.033Z,99.993896
2022-10-22T00:30:05.731Z,99.993896
2022-10-22T00:31:15.408Z,99.993896
2022-10-22T00:32:25.068Z,99.993896
2022-10-22T00:33:34.780Z,99.993896
2022-10-22T00:34:43.458Z,99.993896
2022-10-22T00:35:53.110Z,99.993896
2022-10-22T00:37:02.828Z,99.993896
2022-10-22T00:38:12.483Z,99.993896
2022-10-22T00:39:21.188Z,99.993896
2022-10-22T00:40:30.895Z,99.993896
2022-10-22T00:41:39.557Z,99.993896
2022-10-22T00:42:49.246Z,99.993896
2022-10-22T00:43:56.909Z,99.993896
2022-10-22T00:45:04.581Z,99.993896
2022-10-22T00:46:14.300Z,99.993896
2022-10-22T00:47:22.970Z,99.993896
2022-10-22T00:48:31.675Z,99.993896
2022-10-22T00:49:40.383Z,99.993896
2022-10-22T00:50:49.056Z,99.993896
2022-10-22T00:51:58.692Z,99.993896
2022-10-22T00:53:07.390Z,99.993896
2022-10-22T00:54:16.113Z,99.993896
2022-10-22T00:55:25.777Z,99.993896
2022-10-22T00:56:34.498Z,99.993896
2022-10-22T00:57:43.163Z,99.993896
2022-10-22T00:58:51.825Z,99.993896
2022-10-22T01:00:01.548Z,99.993896
2022-10-22T01:01:11.286Z,99.993896
2022-10-22T01:02:19.900Z,99.993896
2022-10-22T01:03:28.556Z,99.993896
2022-10-22T01:04:38.217Z,99.993896
2022-10-22T01:05:46.912Z,99.993896
2022-10-22T01:06:56.591Z,99.993896
2022-10-22T01:08:06.316Z,99.993896
2022-10-22T01:09:14.979Z,99.993896
2022-10-22T01:10:24.626Z,99.993896
2022-10-22T01:11:34.323Z,99.993896
2022-10-22T01:12:43.203Z,99.993896
2022-10-22T01:13:52.670Z,99.993896
2022-10-22T01:15:02.358Z,99.993896
2022-10-22T01:16:12.019Z,99.993896
2022-10-22T01:18:31.630Z,99.993896
2022-10-22T01:19:40.373Z,99.993896
2022-10-22T01:20:50.118Z,99.993896
2022-10-22T01:21:59.901Z,99.993896
2022-10-22T01:26:56.894Z,99.993896
2022-10-22T01:28:08.155Z,99.993896
2022-10-22T01:29:17.909Z,99.993896
2022-10-22T01:30:25.583Z,99.993896
2022-10-22T01:31:34.295Z,99.993896
2022-10-22T01:32:43.999Z,99.993896
2022-10-22T01:33:51.756Z,99.993896
2022-10-22T01:35:01.448Z,99.993896
2022-10-22T01:36:11.356Z,99.993896
2022-10-22T01:37:19.081Z,99.993896
2022-10-22T01:38:27.829Z,99.993896
2022-10-22T01:39:37.582Z,99.993896
2022-10-22T01:40:47.291Z,99.993896
2022-10-22T01:41:57.017Z,99.993896
2022-10-22T01:43:06.754Z,99.993896
2022-10-22T01:44:15.439Z,99.993896
2022-10-22T01:45:24.171Z,99.993896
2022-10-22T01:46:32.887Z,99.993896
2022-10-22T01:47:41.840Z,99.993896
2022-10-22T01:48:49.328Z,99.993896
2022-10-22T01:49:59.002Z,99.993896
2022-10-22T01:51:06.688Z,99.993896
2022-10-22T01:52:15.384Z,99.993896
2022-10-22T01:53:25.062Z,99.993896
2022-10-22T01:54:32.779Z,99.993896
2022-10-22T01:55:41.616Z,99.993896
2022-10-22T01:56:49.344Z,99.993896
2022-10-22T01:57:58.015Z,99.993896
2022-10-22T01:59:05.741Z,99.993896
2022-10-22T02:00:13.404Z,99.993896
2022-10-22T02:01:22.115Z,99.993896
2022-10-22T02:02:30.844Z,99.993896
2022-10-22T02:03:38.499Z,99.993896
2022-10-22T02:04:48.238Z,99.993896
2022-10-22T02:05:57.938Z,99.993896
2022-10-22T02:07:06.664Z,99.993896
2022-10-22T02:08:16.369Z,99.993896
2022-10-22T02:09:24.010Z,99.993896
2022-10-22T02:10:33.823Z,99.993896
2022-10-22T02:11:41.493Z,99.993896
2022-10-22T02:12:50.188Z,99.993896
2022-10-22T02:13:58.893Z,99.993896
2022-10-22T02:15:05.519Z,99.993896
2022-10-22T02:16:14.182Z,99.993896
2022-10-22T02:17:21.853Z,99.993896
2022-10-22T02:18:30.594Z,99.993896
2022-10-22T02:19:41.281Z,99.993896
2022-10-22T02:20:49.961Z,99.993896
2022-10-22T02:21:59.673Z,99.993896
2022-10-22T02:23:08.349Z,99.993896
2022-10-22T02:24:18.017Z,99.993896
2022-10-22T02:25:26.683Z,99.993896
2022-10-22T02:26:34.358Z,99.993896
2022-10-22T02:27:43.076Z,99.993896
2022-10-22T02:28:51.816Z,99.993896
2022-10-22T02:30:01.538Z,99.993896
2022-10-22T02:31:10.200Z,99.993896
2022-10-22T02:32:18.941Z,99.993896
2022-10-22T02:33:27.685Z,99.993896
2022-10-22T02:34:37.382Z,99.993896
2022-10-22T02:35:46.103Z,99.993896
2022-10-22T02:36:53.922Z,99.993896
2022-10-22T02:38:02.597Z,99.993896
2022-10-22T02:39:12.366Z,99.993896
2022-10-22T02:40:22.204Z,99.993896
2022-10-22T02:41:31.908Z,99.993896
2022-10-22T02:42:41.937Z,99.993896
2022-10-22T02:43:48.298Z,99.993896
2022-10-22T02:44:56.932Z,99.993896
2022-10-22T02:46:04.597Z,99.993896
2022-10-22T02:47:13.329Z,99.993896
2022-10-22T02:48:22.005Z,99.993896
2022-10-22T02:49:30.746Z,99.993896
2022-10-22T02:50:40.518Z,99.993896
2022-10-22T02:51:49.227Z,99.993896
2022-10-22T02:52:56.962Z,99.993896
2022-10-22T02:54:05.615Z,99.993896
2022-10-22T02:55:14.276Z,99.993896
2022-10-22T02:56:24.005Z,99.993896
2022-10-22T02:57:30.650Z,99.993896
2022-10-22T02:58:39.544Z,99.993896
2022-10-22T02:59:47.231Z,99.993896
2022-10-22T03:00:55.946Z,99.993896
2022-10-22T03:02:05.603Z,99.993896
2022-10-22T03:03:15.296Z,99.993896
2022-10-22T03:04:24.990Z,99.993896
2022-10-22T03:05:34.727Z,99.993896
2022-10-22T03:06:43.416Z,99.993896
2022-10-22T03:07:53.059Z,99.993896
2022-10-22T03:09:02.762Z,99.993896
2022-10-22T03:10:11.506Z,99.993896
2022-10-22T03:11:19.192Z,99.993896
2022-10-22T03:12:27.869Z,99.993896
2022-10-22T03:13:35.637Z,99.993896
2022-10-22T03:14:45.335Z,99.993896
2022-10-22T03:15:55.057Z,99.993896
2022-10-22T03:17:04.736Z,99.993896
2022-10-22T03:18:13.481Z,99.993896
2022-10-22T03:19:22.181Z,99.993896
2022-10-22T03:20:31.878Z,99.993896
2022-10-22T03:21:39.609Z,99.993896
2022-10-22T03:22:49.278Z,99.993896
2022-10-22T03:23:58.046Z,99.993896
2022-10-22T03:25:04.790Z,99.993896
2022-10-22T03:26:12.467Z,99.993896
2022-10-22T03:27:22.151Z,99.993896
2022-10-22T03:28:30.808Z,99.993896
2022-10-22T03:29:40.463Z,99.993896
2022-10-22T03:30:48.107Z,99.993896
2022-10-22T03:31:57.801Z,99.993896
2022-10-22T03:33:06.655Z,99.993896
2022-10-22T03:34:15.437Z,99.993896
2022-10-22T03:35:24.180Z,99.993896
2022-10-22T03:36:33.829Z,99.993896
2022-10-22T03:37:41.857Z,99.993896
2022-10-22T03:38:50.246Z,99.993896
2022-10-22T03:39:58.988Z,99.993896
2022-10-22T03:41:06.617Z,99.993896
2022-10-22T03:42:16.279Z,99.993896
2022-10-22T03:43:25.992Z,99.993896
2022-10-22T03:44:34.716Z,99.993896
2022-10-22T03:45:42.380Z,99.993896
2022-10-22T03:46:52.124Z,99.993896
2022-10-22T03:48:01.735Z,99.993896
2022-10-22T03:49:09.422Z,99.993896
2022-10-22T03:50:19.131Z,99.993896
2022-10-22T03:51:28.965Z,99.993896
2022-10-22T03:52:38.650Z,99.993896
2022-10-22T03:53:48.250Z,99.993896
2022-10-22T03:54:56.935Z,99.993896
2022-10-22T03:56:04.663Z,99.993896
2022-10-22T03:57:14.353Z,99.993896
2022-10-22T03:58:23.094Z,99.993896
2022-10-22T03:59:30.807Z,99.993896
2022-10-22T04:00:40.559Z,99.993896
2022-10-22T04:01:50.276Z,99.993896
2022-10-22T04:02:58.980Z,99.993896
2022-10-22T04:04:08.693Z,99.993896
2022-10-22T04:05:16.346Z,99.993896
2022-10-22T04:06:26.079Z,99.993896
2022-10-22T04:07:35.821Z,99.993896
2022-10-22T04:08:45.546Z,99.993896
2022-10-22T04:09:55.258Z,99.993896
2022-10-22T04:11:04.982Z,99.993896
2022-10-22T04:12:14.666Z,99.993896
2022-10-22T04:13:22.317Z,99.993896
2022-10-22T04:14:29.065Z,99.993896
2022-10-22T04:15:36.793Z,99.993896
2022-10-22T04:16:46.402Z,99.993896
2022-10-22T04:17:56.106Z,99.993896
2022-10-22T04:19:05.855Z,99.993896
2022-10-22T04:20:14.592Z,99.993896
2022-10-22T04:21:23.337Z,99.993896
2022-10-22T04:22:32.055Z,99.993896
2022-10-22T04:23:38.783Z,99.993896
2022-10-22T04:24:48.467Z,99.993896
2022-10-22T04:25:57.106Z,99.993896
2022-10-22T04:27:04.787Z,99.993896
2022-10-22T04:28:13.468Z,99.993896
2022-10-22T04:29:21.174Z,99.993896
2022-10-22T04:30:29.981Z,99.993896
2022-10-22T04:31:39.674Z,99.993896
2022-10-22T04:32:48.407Z,99.993896
2022-10-22T04:33:56.060Z,99.993896
2022-10-22T04:35:05.784Z,99.993896
2022-10-22T04:36:13.571Z,99.993896
2022-10-22T04:37:21.298Z,99.993896
2022-10-22T04:38:29.981Z,99.993896
2022-10-22T04:39:38.744Z,99.993896
2022-10-22T04:40:48.493Z,99.993896
2022-10-22T04:41:57.214Z,99.993896
2022-10-22T04:43:05.894Z,99.993896
2022-10-22T04:44:16.355Z,99.993896
2022-10-22T04:45:25.284Z,99.993896
2022-10-22T04:46:34.999Z,99.993896
2022-10-22T04:47:44.897Z,99.993896
2022-10-22T04:48:53.545Z,99.993896
2022-10-22T04:50:03.222Z,99.993896
2022-10-22T04:51:10.884Z,99.993896
2022-10-22T04:52:19.572Z,99.993896
2022-10-22T04:53:28.258Z,99.993896
2022-10-22T04:54:38.068Z,99.993896
2022-10-22T04:55:45.817Z,99.993896
2022-10-22T04:56:55.481Z,99.993896
2022-10-22T04:58:04.169Z,99.993896
2022-10-22T04:59:12.942Z,99.993896
2022-10-22T05:00:21.631Z,99.993896
2022-10-22T05:01:30.435Z,99.993896
2022-10-22T05:02:40.115Z,99.993896
2022-10-22T05:03:48.812Z,99.993896
2022-10-22T05:04:58.541Z,99.993896
2022-10-22T05:06:08.269Z,99.993896
2022-10-22T05:07:15.900Z,99.993896
2022-10-22T05:08:24.585Z,99.993896
2022-10-22T05:09:33.289Z,99.993896
2022-10-22T05:10:42.981Z,99.993896
2022-10-22T05:11:50.656Z,99.993896
2022-10-22T05:12:59.354Z,99.993896
2022-10-22T05:14:08.000Z,99.993896
2022-10-22T05:15:16.699Z,99.993896
2022-10-22T05:16:25.382Z,99.993896
2022-10-22T05:17:40.385Z,99.993896
2022-10-22T05:18:49.814Z,99.993896
2022-10-22T05:19:59.524Z,99.993896
2022-10-22T05:21:07.195Z,99.993896
2022-10-22T05:22:14.910Z,99.993896
2022-10-22T05:23:24.609Z,99.993896
2022-10-22T05:24:33.265Z,99.993896
2022-10-22T05:25:42.951Z,99.993896
2022-10-22T05:26:51.631Z,99.993896
2022-10-22T05:28:01.352Z,99.993896
2022-10-22T05:29:10.992Z,99.993896
2022-10-22T05:30:19.704Z,99.993896
2022-10-22T05:31:27.369Z,99.993896
2022-10-22T05:32:37.049Z,99.993896
2022-10-22T05:33:45.718Z,99.993896
2022-10-22T05:34:54.383Z,99.993896
2022-10-22T05:36:03.090Z,99.993896
2022-10-22T05:37:12.770Z,99.993896
2022-10-22T05:38:22.472Z,99.993896
2022-10-22T05:39:30.279Z,99.993896
2022-10-22T05:40:37.949Z,99.993896
2022-10-22T05:41:47.679Z,99.993896
2022-10-22T05:42:55.468Z,99.993896
2022-10-22T05:44:04.152Z,99.993896
2022-10-22T05:45:13.855Z,99.993896
2022-10-22T05:46:23.574Z,99.993896
2022-10-22T05:47:33.249Z,99.993896
2022-10-22T05:48:40.919Z,99.993896
2022-10-22T05:49:49.603Z,99.993896
2022-10-22T05:50:59.336Z,99.993896
2022-10-22T05:52:08.034Z,99.993896
2022-10-22T05:53:17.734Z,99.993896
2022-10-22T05:54:27.543Z,99.993896
2022-10-22T05:55:37.242Z,99.993896
2022-10-22T05:56:46.928Z,99.993896
2022-10-22T05:57:54.606Z,99.993896
2022-10-22T06:00:12.955Z,99.993896
2022-10-22T06:01:21.652Z,99.993896
2022-10-22T06:02:30.420Z,99.993896
2022-10-22T06:03:40.113Z,99.993896
2022-10-22T06:04:49.773Z,99.993896
2022-10-22T06:05:58.491Z,99.993896
2022-10-22T06:07:07.181Z,99.993896
2022-10-22T06:08:18.902Z,99.993896
2022-10-22T06:09:26.658Z,99.993896
2022-10-22T06:10:35.247Z,99.993896
2022-10-22T06:11:43.998Z,99.993896
2022-10-22T06:12:52.749Z,99.993896
2022-10-22T06:14:01.454Z,99.993896
2022-10-22T06:15:11.128Z,99.993896
2022-10-22T06:16:18.814Z,99.993896
2022-10-22T06:17:29.473Z,99.993896
2022-10-22T06:18:39.158Z,99.993896
2022-10-22T06:19:48.867Z,99.993896
2022-10-22T06:20:57.514Z,99.993896
2022-10-22T06:22:06.198Z,99.993896
2022-10-22T06:23:14.883Z,99.993896
2022-10-22T06:24:24.569Z,99.993896
2022-10-22T06:25:32.265Z,99.993896
2022-10-22T06:26:39.946Z,99.993896
2022-10-22T06:27:49.702Z,99.993896
2022-10-22T06:28:58.393Z,99.993896
2022-10-22T06:30:07.087Z,99.993896
2022-10-22T06:31:15.811Z,99.993896
2022-10-22T06:32:25.623Z,99.993896
2022-10-22T06:33:35.287Z,99.993896
2022-10-22T06:34:42.955Z,99.993896
2022-10-22T06:35:50.627Z,99.993896
2022-10-22T06:37:00.345Z,99.993896
2022-10-22T06:38:09.021Z,99.993896
2022-10-22T06:39:18.755Z,99.993896
2022-10-22T06:40:27.436Z,99.993896
2022-10-22T06:41:37.124Z,99.993896
2022-10-22T06:42:46.947Z,99.993896
2022-10-22T06:43:55.624Z,99.993896
2022-10-22T06:45:05.290Z,99.993896
2022-10-22T06:46:16.151Z,99.993896
2022-10-22T06:47:25.607Z,99.993896
2022-10-22T06:48:34.344Z,99.993896
2022-10-22T06:49:43.997Z,99.993896
2022-10-22T06:50:53.701Z,99.993896
2022-10-22T06:52:03.357Z,99.993896
2022-10-22T06:53:11.069Z,99.993896
2022-10-22T06:54:19.728Z,99.993896
2022-10-22T06:55:29.414Z,99.993896
2022-10-22T06:56:38.071Z,99.993896
2022-10-22T06:57:47.749Z,99.993896
2022-10-22T06:58:56.419Z,99.993896
2022-10-22T07:00:05.135Z,99.993896
2022-10-22T07:01:14.872Z,99.993896
2022-10-22T07:02:23.477Z,99.993896
2022-10-22T07:03:31.150Z,99.993896
2022-10-22T07:04:40.836Z,99.993896
2022-10-22T07:05:50.500Z,99.993896
2022-10-22T07:07:00.180Z,99.993896
2022-10-22T07:08:08.845Z,99.993896
2022-10-22T07:10:28.511Z,99.993896
2022-10-22T07:11:36.874Z,99.993896
2022-10-22T07:12:46.570Z,99.993896
2022-10-22T07:13:55.234Z,99.993896
2022-10-22T07:15:02.889Z,99.993896
2022-10-22T07:16:12.573Z,99.993896
2022-10-22T07:17:21.270Z,99.993896
2022-10-22T07:18:29.995Z,99.993896
2022-10-22T07:19:38.694Z,99.993896
2022-10-22T07:20:48.554Z,99.993896
2022-10-22T07:21:58.207Z,99.993896
2022-10-22T07:23:05.930Z,99.993896
2022-10-22T07:24:13.620Z,99.993896
2022-10-22T07:25:23.311Z,99.993896
2022-10-22T07:26:33.002Z,99.993896
2022-10-22T07:27:42.965Z,99.993896
2022-10-22T07:28:51.405Z,99.993896
2022-10-22T07:30:01.104Z,99.993896
2022-10-22T07:31:10.778Z,99.993896
2022-10-22T07:32:21.686Z,99.993896
2022-10-22T07:33:27.096Z,99.993896
2022-10-22T07:34:37.568Z,99.993896
2022-10-22T07:35:46.455Z,99.993896
2022-10-22T07:36:56.213Z,99.993896
2022-10-22T07:38:05.916Z,99.993896
2022-10-22T07:39:14.601Z,99.993896
2022-10-22T07:40:24.342Z,99.993896
2022-10-22T07:41:33.045Z,99.993896
2022-10-22T07:42:41.752Z,99.993896
2022-10-22T07:43:51.443Z,99.993896
2022-10-22T07:45:01.166Z,99.993896
2022-10-22T07:46:10.946Z,99.993896
2022-10-22T07:47:20.670Z,99.993896
2022-10-22T07:48:29.347Z,99.993896
2022-10-22T07:49:39.158Z,99.993896
2022-10-22T07:50:47.846Z,99.993896
2022-10-22T07:51:56.649Z,99.993896
2022-10-22T07:53:06.379Z,99.993896
2022-10-22T07:54:16.066Z,99.993896
2022-10-22T07:55:25.753Z,99.993896
2022-10-22T07:56:34.444Z,99.993896
2022-10-22T07:57:44.183Z,99.993896
2022-10-22T07:58:53.938Z,99.993896
2022-10-22T08:00:02.580Z,99.993896
2022-10-22T08:01:12.324Z,99.993896
2022-10-22T08:02:21.994Z,99.993896
2022-10-22T08:03:30.687Z,99.993896
2022-10-22T08:04:40.418Z,99.993896
2022-10-22T08:05:50.152Z,99.993896
2022-10-22T08:06:58.901Z,99.993896
2022-10-22T08:08:08.668Z,99.993896
2022-10-22T08:09:18.339Z,99.993896
2022-10-22T08:10:26.100Z,99.993896
2022-10-22T08:11:35.813Z,99.993896
2022-10-22T08:12:44.791Z,99.993896
2022-10-22T08:13:54.185Z,99.993896
2022-10-22T08:15:02.965Z,99.993896
2022-10-22T08:16:11.628Z,99.993896
2022-10-22T08:17:21.323Z,99.993896
2022-10-22T08:18:30.003Z,99.993896
2022-10-22T08:19:37.711Z,99.993896
2022-10-22T08:20:47.467Z,99.993896
2022-10-22T08:21:56.127Z,99.993896
2022-10-22T08:23:05.831Z,99.993896
2022-10-22T08:24:14.525Z,99.993896
2022-10-22T08:25:23.168Z,99.993896
2022-10-22T08:26:31.956Z,99.993896
2022-10-22T08:27:40.778Z,99.993896
2022-10-22T08:28:50.466Z,99.993896
2022-10-22T08:30:00.143Z,99.993896
2022-10-22T08:31:09.051Z,99.993896
2022-10-22T08:32:18.704Z,99.993896
2022-10-22T08:33:29.291Z,99.993896
2022-10-22T08:34:37.975Z,99.993896
2022-10-22T08:35:47.679Z,99.993896
2022-10-22T08:36:56.416Z,99.993896
2022-10-22T08:38:05.160Z,99.884033
2022-10-22T08:39:14.836Z,99.780273
2022-10-22T08:40:23.598Z,99.682617
2022-10-22T08:41:32.250Z,99.884033
2022-10-22T08:42:41.124Z,99.578857
2022-10-22T08:43:49.939Z,99.475098
2022-10-22T08:44:59.711Z,99.578857
2022-10-22T08:46:07.400Z,99.578857
2022-10-22T08:47:17.498Z,99.884033
2022-10-22T08:48:26.753Z,99.780273
2022-10-22T08:49:38.370Z,99.780273
2022-10-22T08:50:46.342Z,99.987793
2022-10-22T08:51:56.047Z,99.884033
2022-10-22T08:53:04.742Z,99.987793
2022-10-22T08:54:14.467Z,99.987793
2022-10-22T08:55:22.330Z,99.987793
2022-10-22T08:56:31.085Z,99.884033
2022-10-22T08:57:40.758Z,99.993896
2022-10-22T08:58:49.456Z,99.884033
2022-10-22T08:59:58.183Z,99.780273
2022-10-22T09:01:06.883Z,99.938965
2022-10-22T09:02:15.574Z,99.938965
2022-10-22T09:03:25.290Z,99.993896
2022-10-22T09:04:32.979Z,99.938965
2022-10-22T09:05:42.723Z,99.938965
2022-10-22T09:06:53.588Z,99.938965
2022-10-22T09:08:01.434Z,99.633789
2022-10-22T09:09:11.393Z,99.530029
2022-10-22T09:10:20.940Z,99.328613
2022-10-22T09:11:29.642Z,99.633789
2022-10-22T09:12:39.394Z,99.737549
2022-10-22T09:13:49.082Z,99.835205
2022-10-22T09:14:58.811Z,99.938965
2022-10-22T09:16:07.476Z,99.737549
2022-10-22T09:17:15.173Z,99.530029
2022-10-22T09:18:24.932Z,99.737549
2022-10-22T09:19:33.635Z,99.835205
2022-10-22T09:20:42.310Z,99.633789
2022-10-22T09:21:52.020Z,99.633789
2022-10-22T09:23:00.751Z,99.432373
2022-10-22T09:24:10.522Z,99.224854
2022-10-22T09:25:19.192Z,99.078369
2022-10-22T09:26:27.880Z,99.383545
2022-10-22T09:27:37.593Z,99.383545
2022-10-22T09:28:46.310Z,98.974609
2022-10-22T09:29:55.015Z,98.876953
2022-10-22T09:31:03.825Z,99.078369
2022-10-22T09:32:12.438Z,98.773193
2022-10-22T09:33:23.884Z,98.468018
2022-10-22T09:34:31.883Z,98.931885
2022-10-22T09:35:39.627Z,98.931885
2022-10-22T09:36:49.320Z,98.828125
2022-10-22T09:37:58.994Z,98.522949
2022-10-22T09:39:07.744Z,98.425293
2022-10-22T09:40:16.392Z,98.223877
2022-10-22T09:41:26.099Z,98.016357
2022-10-22T09:42:35.855Z,97.668457
2022-10-22T09:43:44.638Z,98.071289
2022-10-22T09:44:52.399Z,97.973633
2022-10-22T09:46:02.057Z,98.278809
2022-10-22T09:47:11.867Z,98.278809
2022-10-22T09:48:20.606Z,97.924805
2022-10-22T09:49:29.316Z,97.113037
2022-10-22T09:50:39.022Z,97.320557
2022-10-22T09:51:48.733Z,97.216797
2022-10-22T09:52:58.663Z,96.911621
2022-10-22T09:54:08.361Z,96.606445
2022-10-22T09:55:18.127Z,96.203613
2022-10-22T09:56:27.808Z,96.203613
2022-10-22T09:57:37.870Z,96.099854
2022-10-22T09:58:47.164Z,96.350098
2022-10-22T09:59:56.937Z,96.655273
2022-10-22T10:01:06.598Z,97.015381
2022-10-22T10:02:20.508Z,96.911621
2022-10-22T10:03:24.011Z,96.606445
2022-10-22T10:04:33.674Z,96.405029
2022-10-22T10:05:42.337Z,96.405029
2022-10-22T10:06:52.043Z,95.794678
2022-10-22T10:08:00.730Z,95.898438
2022-10-22T10:09:10.554Z,96.30127
2022-10-22T10:10:20.212Z,96.203613
2022-10-22T10:11:29.194Z,96.30127
2022-10-22T10:12:36.637Z,96.350098
2022-10-22T10:13:46.333Z,96.960449
2022-10-22T10:14:55.028Z,97.058105
2022-10-22T10:16:03.777Z,97.564697
2022-10-22T10:17:13.432Z,97.766113
2022-10-22T10:18:22.168Z,97.668457
2022-10-22T10:19:31.841Z,97.216797
2022-10-22T10:20:40.597Z,97.320557
2022-10-22T10:21:48.297Z,97.216797
2022-10-22T10:22:58.069Z,96.960449
2022-10-22T10:24:07.766Z,96.856689
2022-10-22T10:25:17.487Z,97.113037
2022-10-22T10:26:27.170Z,96.911621
2022-10-22T10:27:35.878Z,96.807861
2022-10-22T10:28:45.569Z,95.898438
2022-10-22T10:29:54.283Z,96.057129
2022-10-22T10:31:03.013Z,96.459961
2022-10-22T10:32:12.686Z,96.008301
2022-10-22T10:33:23.434Z,95.300293
2022-10-22T10:34:33.123Z,94.390869
2022-10-22T10:35:41.802Z,94.085693
2022-10-22T10:36:50.514Z,94.390869
2022-10-22T10:38:00.262Z,93.884277
2022-10-22T10:39:09.964Z,93.780518
2022-10-22T10:40:18.648Z,94.244385
2022-10-22T10:41:28.376Z,93.841553
2022-10-22T10:42:37.116Z,92.321777
2022-10-22T10:43:45.841Z,92.724609
2022-10-22T10:44:55.594Z,92.578125
2022-10-22T10:46:05.276Z,92.077637
2022-10-22T10:47:15.043Z,92.987061
2022-10-22T10:48:24.774Z,92.333984
2022-10-22T10:49:32.470Z,90.979004
2022-10-22T10:50:42.265Z,90.06958
2022-10-22T10:51:51.035Z,89.96582
2022-10-22T10:53:00.895Z,89.660645
2022-10-22T10:54:09.637Z,89.361572
2022-10-22T10:55:18.363Z,89.96582
2022-10-22T10:56:28.270Z,89.562988
2022-10-22T10:57:39.273Z,89.117432
2022-10-22T10:58:48.697Z,88.873291
2022-10-22T10:59:58.404Z,87.762451
2022-10-22T11:01:06.097Z,87.860107
2022-10-22T11:02:15.830Z,88.482666
2022-10-22T11:03:25.554Z,86.529541
2022-10-22T11:04:35.283Z,86.688232
2022-10-22T11:05:45.013Z,84.472656
2022-10-22T11:06:52.677Z,83.764648
2022-10-22T11:08:00.548Z,83.258057
2022-10-22T11:09:10.147Z,84.008789
2022-10-22T11:10:19.788Z,83.868408
2022-10-22T11:11:29.481Z,84.191895
2022-10-22T11:12:38.282Z,81.933594
2022-10-22T11:13:46.874Z,81.37207
2022-10-22T11:14:56.564Z,82.678223
2022-10-22T11:16:05.245Z,81.774902
2022-10-22T11:17:15.995Z,82.940674
2022-10-22T11:18:24.688Z,82.501221
2022-10-22T11:19:50.043Z,81.695557
2022-10-22T11:20:45.090Z,80.749512
2022-10-22T11:21:54.763Z,80.047607
2022-10-22T11:23:20.723Z,79.681396
2022-10-22T11:24:15.272Z,81.494141
2022-10-22T11:25:23.989Z,80.426025
2022-10-22T11:26:33.671Z,81.774902
2022-10-22T11:27:42.831Z,82.037354
2022-10-22T11:28:52.106Z,81.530762
2022-10-22T11:30:01.810Z,81.835938
2022-10-22T11:31:10.516Z,82.13501
2022-10-22T11:32:20.236Z,81.433105
2022-10-22T11:33:28.981Z,81.433105
2022-10-22T11:34:37.700Z,81.933594
2022-10-22T11:35:47.389Z,81.854248
2022-10-22T11:36:56.143Z,81.115723
2022-10-22T11:38:04.845Z,80.877686
2022-10-22T11:39:14.553Z,78.900146
2022-10-22T11:40:23.213Z,80.310059
2022-10-22T11:41:31.891Z,80.249023
2022-10-22T11:42:40.583Z,81.011963
2022-10-22T11:43:50.322Z,80.712891
2022-10-22T11:45:00.043Z,80.169678
2022-10-22T11:46:07.717Z,79.431152
2022-10-22T11:47:16.461Z,78.753662
2022-10-22T11:48:26.260Z,77.716064
2022-10-22T11:49:35.933Z,77.7771
2022-10-22T11:50:44.667Z,77.13623
2022-10-22T11:51:54.305Z,75.897217
2022-10-22T11:53:03.098Z,75.128174
2022-10-22T11:54:12.750Z,74.664307
2022-10-22T11:55:21.427Z,74.499512
2022-10-22T11:56:29.094Z,75.604248
2022-10-22T11:57:39.066Z,77.246094
2022-10-22T11:58:50.787Z,77.648926
2022-10-22T11:59:59.461Z,76.745605
2022-10-22T12:01:09.181Z,76.68457
2022-10-22T12:02:17.854Z,77.789307
2022-10-22T12:03:27.591Z,77.246094
2022-10-22T12:04:36.379Z,77.55127
2022-10-22T12:05:44.119Z,77.44751
2022-10-22T12:06:53.838Z,77.050781
2022-10-22T12:08:03.517Z,76.745605
2022-10-22T12:09:13.217Z,76.373291
2022-10-22T12:10:21.942Z,71.459961
2022-10-22T12:11:30.679Z,71.09375
2022-10-22T12:12:40.668Z,71.026611
2022-10-22T12:13:49.117Z,70.294189
2022-10-22T12:14:57.866Z,74.102783
2022-10-22T12:16:09.545Z,73.034668
2022-10-22T12:17:17.321Z,75.109863
2022-10-22T12:18:26.024Z,75.854492
2022-10-22T12:19:35.810Z,76.190186
2022-10-22T12:20:44.511Z,76.391602
2022-10-22T12:21:54.220Z,77.429199
2022-10-22T12:23:01.931Z,77.429199
2022-10-22T12:24:10.647Z,77.770996
2022-10-22T12:25:20.415Z,77.46582
2022-10-22T12:26:32.121Z,78.912354
2022-10-22T12:27:37.949Z,78.509521
2022-10-22T12:28:46.520Z,78.411865
2022-10-22T12:29:55.251Z,78.613281
2022-10-22T12:31:05.044Z,78.009033
2022-10-22T12:32:13.728Z,78.814697
2022-10-22T12:33:23.444Z,79.180908
2022-10-22T12:34:33.196Z,78.234863
2022-10-22T12:35:41.850Z,78.033447
2022-10-22T12:36:51.537Z,77.532959
2022-10-22T12:38:01.198Z,78.070068
2022-10-22T12:39:09.948Z,78.173828
2022-10-22T12:40:19.612Z,78.173828
2022-10-22T12:41:27.367Z,78.778076
2022-10-22T12:42:37.061Z,78.912354
2022-10-22T12:43:46.828Z,78.912354
2022-10-22T12:44:55.507Z,79.418945
2022-10-22T12:46:05.219Z,79.656982
2022-10-22T12:47:14.878Z,80.462646
2022-10-22T12:48:24.606Z,80.664062
2022-10-22T12:49:34.377Z,80.26123
2022-10-22T12:50:43.022Z,79.656982
2022-10-22T12:51:50.765Z,79.656982
2022-10-22T12:53:00.523Z,80.462646
2022-10-22T12:54:09.213Z,80.499268
2022-10-22T12:55:18.939Z,80.401611
2022-10-22T12:56:28.645Z,81.005859
2022-10-22T12:57:39.224Z,81.347656
2022-10-22T12:58:48.934Z,81.04248
2022-10-22T12:59:56.653Z,81.243896
2022-10-22T13:01:05.474Z,81.14624
2022-10-22T13:02:15.062Z,81.646729
2022-10-22T13:03:24.040Z,81.445312
2022-10-22T13:04:33.759Z,81.646729
2022-10-22T13:05:43.453Z,81.750488
2022-10-22T13:06:51.165Z,81.445312
2022-10-22T13:08:00.841Z,81.750488
2022-10-22T13:09:09.680Z,82.092285
2022-10-22T13:10:19.361Z,81.988525
2022-10-22T13:11:29.139Z,81.750488
2022-10-22T13:12:37.900Z,81.445312
2022-10-22T13:13:47.656Z,81.14624
2022-10-22T13:14:57.386Z,81.445312
2022-10-22T13:16:07.129Z,81.243896